sensor_id;sensor_type;location;lat;lon;timestamp;temperature;humidity
33476;DHT22;19814;48.224;11.422;2023-05-07T00:00:46;12.40;99.90
33476;DHT22;19814;48.224;11.422;2023-05-07T00:03:12;12.30;99.90
33476;DHT22;19814;48.224;11.422;2023-05-07T00:05:39;12.30;99.90
33476;DHT22;19814;48.224;11.422;2023-05-07T00:08:04;12.30;99.90
33476;DHT22;19814;48.224;11.422;2023-05-07T00:10:30;12.30;99.90
33476;DHT22;19814;48.224;11.422;2023-05-07T00:12:55;12.20;99.90
33476;DHT22;19814;48.224;11.422;2023-05-07T00:15:21;12.20;99.90
33476;DHT22;19814;48.224;11.422;2023-05-07T00:17:47;12.20;99.90
33476;DHT22;19814;48.224;11.422;2023-05-07T00:20:12;12.20;99.90
33476;DHT22;19814;48.224;11.422;2023-05-07T00:22:38;12.20;99.90
33476;DHT22;19814;48.224;11.422;2023-05-07T00:25:04;12.20;99.90
33476;DHT22;19814;48.224;11.422;2023-05-07T00:27:30;12.20;99.90
33476;DHT22;19814;48.224;11.422;2023-05-07T00:29:56;12.20;99.90
33476;DHT22;19814;48.224;11.422;2023-05-07T00:32:21;12.20;99.90
33476;DHT22;19814;48.224;11.422;2023-05-07T00:34:47;12.20;99.90
33476;DHT22;19814;48.224;11.422;2023-05-07T00:37:12;12.30;99.90
33476;DHT22;19814;48.224;11.422;2023-05-07T00:39:38;12.20;99.90
33476;DHT22;19814;48.224;11.422;2023-05-07T00:42:03;12.20;99.90
33476;DHT22;19814;48.224;11.422;2023-05-07T00:44:29;12.20;99.90
33476;DHT22;19814;48.224;11.422;2023-05-07T00:46:56;12.10;99.90
33476;DHT22;19814;48.224;11.422;2023-05-07T00:49:25;12.10;99.90
33476;DHT22;19814;48.224;11.422;2023-05-07T00:51:55;12.10;99.90
33476;DHT22;19814;48.224;11.422;2023-05-07T00:54:22;12.00;99.90
33476;DHT22;19814;48.224;11.422;2023-05-07T00:56:47;11.90;99.90
33476;DHT22;19814;48.224;11.422;2023-05-07T00:59:13;11.90;99.90
33476;DHT22;19814;48.224;11.422;2023-05-07T01:01:38;11.90;99.90
33476;DHT22;19814;48.224;11.422;2023-05-07T01:04:04;11.90;99.90
33476;DHT22;19814;48.224;11.422;2023-05-07T01:06:32;12.00;99.90
33476;DHT22;19814;48.224;11.422;2023-05-07T01:08:58;12.10;99.90
33476;DHT22;19814;48.224;11.422;2023-05-07T01:11:24;12.10;99.90
33476;DHT22;19814;48.224;11.422;2023-05-07T01:13:50;12.10;99.90
33476;DHT22;19814;48.224;11.422;2023-05-07T01:16:16;12.10;99.90
33476;DHT22;19814;48.224;11.422;2023-05-07T01:18:42;12.20;99.90
33476;DHT22;19814;48.224;11.422;2023-05-07T01:21:10;12.10;99.90
33476;DHT22;19814;48.224;11.422;2023-05-07T01:23:36;12.10;99.90
33476;DHT22;19814;48.224;11.422;2023-05-07T01:26:02;12.00;99.90
33476;DHT22;19814;48.224;11.422;2023-05-07T01:28:28;12.00;99.90
33476;DHT22;19814;48.224;11.422;2023-05-07T01:30:56;12.00;99.90
33476;DHT22;19814;48.224;11.422;2023-05-07T01:33:24;12.00;99.90
33476;DHT22;19814;48.224;11.422;2023-05-07T01:35:52;12.00;99.90
33476;DHT22;19814;48.224;11.422;2023-05-07T01:38:19;12.00;99.90
33476;DHT22;19814;48.224;11.422;2023-05-07T01:40:46;12.00;99.90
33476;DHT22;19814;48.224;11.422;2023-05-07T01:43:12;12.00;99.90
33476;DHT22;19814;48.224;11.422;2023-05-07T01:45:38;12.00;99.90
33476;DHT22;19814;48.224;11.422;2023-05-07T01:48:04;12.10;99.90
33476;DHT22;19814;48.224;11.422;2023-05-07T01:50:30;12.10;99.90
33476;DHT22;19814;48.224;11.422;2023-05-07T01:52:56;12.00;99.90
33476;DHT22;19814;48.224;11.422;2023-05-07T01:55:22;12.00;99.90
33476;DHT22;19814;48.224;11.422;2023-05-07T01:57:47;12.00;99.90
33476;DHT22;19814;48.224;11.422;2023-05-07T02:00:13;12.00;99.90
33476;DHT22;19814;48.224;11.422;2023-05-07T02:02:39;11.90;99.90
33476;DHT22;19814;48.224;11.422;2023-05-07T02:05:05;11.80;99.90
33476;DHT22;19814;48.224;11.422;2023-05-07T02:07:30;11.80;99.90
33476;DHT22;19814;48.224;11.422;2023-05-07T02:09:56;11.80;99.90
33476;DHT22;19814;48.224;11.422;2023-05-07T02:12:22;11.80;99.90
33476;DHT22;19814;48.224;11.422;2023-05-07T02:14:48;11.80;99.90
33476;DHT22;19814;48.224;11.422;2023-05-07T02:17:13;11.80;99.90
33476;DHT22;19814;48.224;11.422;2023-05-07T02:19:39;11.80;99.90
33476;DHT22;19814;48.224;11.422;2023-05-07T02:22:05;11.80;99.90
33476;DHT22;19814;48.224;11.422;2023-05-07T02:24:30;11.80;99.90
33476;DHT22;19814;48.224;11.422;2023-05-07T02:26:56;11.80;99.90
33476;DHT22;19814;48.224;11.422;2023-05-07T02:29:21;11.80;99.90
33476;DHT22;19814;48.224;11.422;2023-05-07T02:31:47;11.70;99.90
33476;DHT22;19814;48.224;11.422;2023-05-07T02:34:16;11.70;99.90
33476;DHT22;19814;48.224;11.422;2023-05-07T02:36:42;11.80;99.90
33476;DHT22;19814;48.224;11.422;2023-05-07T02:39:07;11.80;99.90
33476;DHT22;19814;48.224;11.422;2023-05-07T02:41:33;11.80;99.90
33476;DHT22;19814;48.224;11.422;2023-05-07T02:43:59;11.80;99.90
33476;DHT22;19814;48.224;11.422;2023-05-07T02:46:24;11.80;99.90
33476;DHT22;19814;48.224;11.422;2023-05-07T02:48:50;11.80;99.90
33476;DHT22;19814;48.224;11.422;2023-05-07T02:51:20;11.80;99.90
33476;DHT22;19814;48.224;11.422;2023-05-07T02:53:45;11.70;99.90
33476;DHT22;19814;48.224;11.422;2023-05-07T02:56:11;11.70;99.90
33476;DHT22;19814;48.224;11.422;2023-05-07T02:58:37;11.50;99.90
33476;DHT22;19814;48.224;11.422;2023-05-07T03:01:05;11.50;99.90
33476;DHT22;19814;48.224;11.422;2023-05-07T03:03:30;11.40;99.90
33476;DHT22;19814;48.224;11.422;2023-05-07T03:05:56;11.40;99.90
33476;DHT22;19814;48.224;11.422;2023-05-07T03:08:21;11.50;99.90
33476;DHT22;19814;48.224;11.422;2023-05-07T03:10:47;11.40;99.90
33476;DHT22;19814;48.224;11.422;2023-05-07T03:13:13;11.40;99.90
33476;DHT22;19814;48.224;11.422;2023-05-07T03:15:38;11.40;99.90
33476;DHT22;19814;48.224;11.422;2023-05-07T03:18:04;11.40;99.90
33476;DHT22;19814;48.224;11.422;2023-05-07T03:20:29;11.40;99.90
33476;DHT22;19814;48.224;11.422;2023-05-07T03:22:55;11.30;99.90
33476;DHT22;19814;48.224;11.422;2023-05-07T03:25:21;11.30;99.90
33476;DHT22;19814;48.224;11.422;2023-05-07T03:27:46;11.30;99.90
33476;DHT22;19814;48.224;11.422;2023-05-07T03:30:12;11.30;99.90
33476;DHT22;19814;48.224;11.422;2023-05-07T03:32:38;11.30;99.90
33476;DHT22;19814;48.224;11.422;2023-05-07T03:35:04;11.30;99.90
33476;DHT22;19814;48.224;11.422;2023-05-07T03:37:29;11.30;99.90
33476;DHT22;19814;48.224;11.422;2023-05-07T03:39:55;11.30;99.90
33476;DHT22;19814;48.224;11.422;2023-05-07T03:42:21;11.40;99.90
33476;DHT22;19814;48.224;11.422;2023-05-07T03:44:46;11.40;99.90
33476;DHT22;19814;48.224;11.422;2023-05-07T03:47:12;11.40;99.90
33476;DHT22;19814;48.224;11.422;2023-05-07T03:49:39;11.40;99.90
33476;DHT22;19814;48.224;11.422;2023-05-07T03:52:05;11.30;99.90
33476;DHT22;19814;48.224;11.422;2023-05-07T03:54:31;11.30;99.90
33476;DHT22;19814;48.224;11.422;2023-05-07T03:56:56;11.30;99.90
33476;DHT22;19814;48.224;11.422;2023-05-07T03:59:22;11.30;99.90
33476;DHT22;19814;48.224;11.422;2023-05-07T04:01:48;11.30;99.90
33476;DHT22;19814;48.224;11.422;2023-05-07T04:04:14;11.30;99.90
33476;DHT22;19814;48.224;11.422;2023-05-07T04:06:40;11.30;99.90
33476;DHT22;19814;48.224;11.422;2023-05-07T04:09:06;11.30;99.90
33476;DHT22;19814;48.224;11.422;2023-05-07T04:11:32;11.30;99.90
33476;DHT22;19814;48.224;11.422;2023-05-07T04:13:57;11.30;99.90
33476;DHT22;19814;48.224;11.422;2023-05-07T04:16:23;11.30;99.90
33476;DHT22;19814;48.224;11.422;2023-05-07T04:18:48;11.20;99.90
33476;DHT22;19814;48.224;11.422;2023-05-07T04:21:18;11.20;99.90
33476;DHT22;19814;48.224;11.422;2023-05-07T04:23:45;11.20;99.90
33476;DHT22;19814;48.224;11.422;2023-05-07T04:26:10;11.20;99.90
33476;DHT22;19814;48.224;11.422;2023-05-07T04:28:36;11.30;99.90
33476;DHT22;19814;48.224;11.422;2023-05-07T04:31:02;11.30;99.90
33476;DHT22;19814;48.224;11.422;2023-05-07T04:33:27;11.30;99.90
33476;DHT22;19814;48.224;11.422;2023-05-07T04:35:53;11.20;99.90
33476;DHT22;19814;48.224;11.422;2023-05-07T04:38:18;11.20;99.90
33476;DHT22;19814;48.224;11.422;2023-05-07T04:40:44;11.30;99.90
33476;DHT22;19814;48.224;11.422;2023-05-07T04:43:10;11.30;99.90
33476;DHT22;19814;48.224;11.422;2023-05-07T04:45:36;11.40;99.90
33476;DHT22;19814;48.224;11.422;2023-05-07T04:48:02;11.50;99.90
33476;DHT22;19814;48.224;11.422;2023-05-07T04:50:27;11.60;99.90
33476;DHT22;19814;48.224;11.422;2023-05-07T04:52:53;11.60;99.90
33476;DHT22;19814;48.224;11.422;2023-05-07T04:55:19;11.70;99.90
33476;DHT22;19814;48.224;11.422;2023-05-07T04:57:44;11.80;99.90
33476;DHT22;19814;48.224;11.422;2023-05-07T05:00:11;11.90;99.90
33476;DHT22;19814;48.224;11.422;2023-05-07T05:02:40;11.90;99.90
33476;DHT22;19814;48.224;11.422;2023-05-07T05:05:06;12.00;99.90
33476;DHT22;19814;48.224;11.422;2023-05-07T05:07:32;12.10;99.90
33476;DHT22;19814;48.224;11.422;2023-05-07T05:09:57;12.20;99.90
33476;DHT22;19814;48.224;11.422;2023-05-07T05:12:23;12.20;99.90
33476;DHT22;19814;48.224;11.422;2023-05-07T05:14:48;12.30;99.90
33476;DHT22;19814;48.224;11.422;2023-05-07T05:17:14;12.30;99.90
33476;DHT22;19814;48.224;11.422;2023-05-07T05:19:39;12.40;99.90
33476;DHT22;19814;48.224;11.422;2023-05-07T05:22:05;12.60;99.90
33476;DHT22;19814;48.224;11.422;2023-05-07T05:24:31;12.80;99.90
33476;DHT22;19814;48.224;11.422;2023-05-07T05:26:57;12.90;99.90
33476;DHT22;19814;48.224;11.422;2023-05-07T05:29:22;13.10;99.90
33476;DHT22;19814;48.224;11.422;2023-05-07T05:31:48;13.30;99.90
33476;DHT22;19814;48.224;11.422;2023-05-07T05:34:14;13.60;99.90
33476;DHT22;19814;48.224;11.422;2023-05-07T05:36:39;13.80;99.90
33476;DHT22;19814;48.224;11.422;2023-05-07T05:39:05;14.10;99.90
33476;DHT22;19814;48.224;11.422;2023-05-07T05:41:31;14.30;99.90
33476;DHT22;19814;48.224;11.422;2023-05-07T05:43:56;14.60;99.90
33476;DHT22;19814;48.224;11.422;2023-05-07T05:46:22;14.70;99.90
33476;DHT22;19814;48.224;11.422;2023-05-07T05:48:47;15.00;99.90
33476;DHT22;19814;48.224;11.422;2023-05-07T05:51:13;15.30;99.90
33476;DHT22;19814;48.224;11.422;2023-05-07T05:53:39;15.70;99.90
33476;DHT22;19814;48.224;11.422;2023-05-07T05:56:04;15.90;99.90
33476;DHT22;19814;48.224;11.422;2023-05-07T05:58:30;16.10;99.90
33476;DHT22;19814;48.224;11.422;2023-05-07T06:00:56;16.40;99.90
33476;DHT22;19814;48.224;11.422;2023-05-07T06:03:22;16.40;99.90
33476;DHT22;19814;48.224;11.422;2023-05-07T06:05:47;16.30;99.90
33476;DHT22;19814;48.224;11.422;2023-05-07T06:08:13;16.50;99.90
33476;DHT22;19814;48.224;11.422;2023-05-07T06:10:38;16.90;99.90
33476;DHT22;19814;48.224;11.422;2023-05-07T06:13:04;17.10;99.90
33476;DHT22;19814;48.224;11.422;2023-05-07T06:15:30;17.10;99.90
33476;DHT22;19814;48.224;11.422;2023-05-07T06:17:56;17.20;99.90
33476;DHT22;19814;48.224;11.422;2023-05-07T06:20:22;17.30;99.90
33476;DHT22;19814;48.224;11.422;2023-05-07T06:22:48;17.60;99.90
33476;DHT22;19814;48.224;11.422;2023-05-07T06:25:14;17.90;99.90
33476;DHT22;19814;48.224;11.422;2023-05-07T06:27:40;18.20;99.90
33476;DHT22;19814;48.224;11.422;2023-05-07T06:30:06;18.40;99.90
33476;DHT22;19814;48.224;11.422;2023-05-07T06:32:32;18.50;99.90
33476;DHT22;19814;48.224;11.422;2023-05-07T06:34:57;18.50;99.90
33476;DHT22;19814;48.224;11.422;2023-05-07T06:37:23;18.50;99.90
33476;DHT22;19814;48.224;11.422;2023-05-07T06:39:49;18.70;99.90
33476;DHT22;19814;48.224;11.422;2023-05-07T06:42:14;18.80;99.90
33476;DHT22;19814;48.224;11.422;2023-05-07T06:44:40;18.70;99.90
33476;DHT22;19814;48.224;11.422;2023-05-07T06:47:05;19.10;99.90
33476;DHT22;19814;48.224;11.422;2023-05-07T06:49:31;19.50;99.90
33476;DHT22;19814;48.224;11.422;2023-05-07T06:51:57;19.80;99.90
33476;DHT22;19814;48.224;11.422;2023-05-07T06:54:22;20.30;99.90
33476;DHT22;19814;48.224;11.422;2023-05-07T06:56:48;20.70;99.90
33476;DHT22;19814;48.224;11.422;2023-05-07T06:59:13;20.90;99.90
33476;DHT22;19814;48.224;11.422;2023-05-07T07:01:39;21.20;99.90
33476;DHT22;19814;48.224;11.422;2023-05-07T07:04:05;21.50;99.90
33476;DHT22;19814;48.224;11.422;2023-05-07T07:06:31;21.70;99.90
33476;DHT22;19814;48.224;11.422;2023-05-07T07:08:58;21.80;99.30
33476;DHT22;19814;48.224;11.422;2023-05-07T07:11:23;22.00;99.90
33476;DHT22;19814;48.224;11.422;2023-05-07T07:13:49;22.40;99.90
33476;DHT22;19814;48.224;11.422;2023-05-07T07:16:16;22.80;99.90
33476;DHT22;19814;48.224;11.422;2023-05-07T07:18:41;23.00;99.90
33476;DHT22;19814;48.224;11.422;2023-05-07T07:21:07;23.10;98.80
33476;DHT22;19814;48.224;11.422;2023-05-07T07:23:32;22.90;99.60
33476;DHT22;19814;48.224;11.422;2023-05-07T07:25:58;23.10;99.90
33476;DHT22;19814;48.224;11.422;2023-05-07T07:28:24;23.40;98.00
33476;DHT22;19814;48.224;11.422;2023-05-07T07:30:49;23.70;98.30
33476;DHT22;19814;48.224;11.422;2023-05-07T07:33:15;23.90;96.90
33476;DHT22;19814;48.224;11.422;2023-05-07T07:35:40;24.20;98.60
33476;DHT22;19814;48.224;11.422;2023-05-07T07:38:06;24.00;94.40
33476;DHT22;19814;48.224;11.422;2023-05-07T07:40:34;24.00;97.50
33476;DHT22;19814;48.224;11.422;2023-05-07T07:42:59;24.60;98.70
33476;DHT22;19814;48.224;11.422;2023-05-07T07:45:26;24.70;95.10
33476;DHT22;19814;48.224;11.422;2023-05-07T07:47:52;24.80;94.70
33476;DHT22;19814;48.224;11.422;2023-05-07T07:50:17;25.00;97.10
33476;DHT22;19814;48.224;11.422;2023-05-07T07:52:43;25.20;93.10
33476;DHT22;19814;48.224;11.422;2023-05-07T07:55:09;25.60;94.60
33476;DHT22;19814;48.224;11.422;2023-05-07T07:57:34;25.60;91.30
33476;DHT22;19814;48.224;11.422;2023-05-07T08:00:00;25.30;93.30
33476;DHT22;19814;48.224;11.422;2023-05-07T08:02:26;25.30;91.30
33476;DHT22;19814;48.224;11.422;2023-05-07T08:04:51;24.80;93.00
33476;DHT22;19814;48.224;11.422;2023-05-07T08:07:17;24.80;91.90
33476;DHT22;19814;48.224;11.422;2023-05-07T08:09:46;24.70;93.30
33476;DHT22;19814;48.224;11.422;2023-05-07T08:12:12;24.70;90.50
33476;DHT22;19814;48.224;11.422;2023-05-07T08:14:38;24.30;91.70
33476;DHT22;19814;48.224;11.422;2023-05-07T08:17:03;24.70;93.80
33476;DHT22;19814;48.224;11.422;2023-05-07T08:19:29;25.00;93.50
33476;DHT22;19814;48.224;11.422;2023-05-07T08:21:54;25.60;93.00
33476;DHT22;19814;48.224;11.422;2023-05-07T08:24:21;26.40;91.60
33476;DHT22;19814;48.224;11.422;2023-05-07T08:26:46;27.00;91.90
33476;DHT22;19814;48.224;11.422;2023-05-07T08:29:15;27.30;90.30
33476;DHT22;19814;48.224;11.422;2023-05-07T08:31:44;27.80;87.40
33476;DHT22;19814;48.224;11.422;2023-05-07T08:34:10;26.90;88.50
33476;DHT22;19814;48.224;11.422;2023-05-07T08:36:35;27.20;91.30
33476;DHT22;19814;48.224;11.422;2023-05-07T08:39:01;26.50;86.90
33476;DHT22;19814;48.224;11.422;2023-05-07T08:41:26;26.40;85.70
33476;DHT22;19814;48.224;11.422;2023-05-07T08:43:52;26.30;86.90
33476;DHT22;19814;48.224;11.422;2023-05-07T08:46:20;27.00;91.60
33476;DHT22;19814;48.224;11.422;2023-05-07T08:48:50;27.50;91.50
33476;DHT22;19814;48.224;11.422;2023-05-07T08:51:20;28.40;89.90
33476;DHT22;19814;48.224;11.422;2023-05-07T08:53:48;29.20;90.20
33476;DHT22;19814;48.224;11.422;2023-05-07T08:56:14;29.80;89.10
33476;DHT22;19814;48.224;11.422;2023-05-07T08:58:44;29.70;82.00
33476;DHT22;19814;48.224;11.422;2023-05-07T09:01:13;29.00;83.60
33476;DHT22;19814;48.224;11.422;2023-05-07T09:03:39;29.50;90.90
33476;DHT22;19814;48.224;11.422;2023-05-07T09:06:05;29.90;75.70
33476;DHT22;19814;48.224;11.422;2023-05-07T09:08:33;29.70;84.80
33476;DHT22;19814;48.224;11.422;2023-05-07T09:10:59;30.40;89.90
33476;DHT22;19814;48.224;11.422;2023-05-07T09:13:25;31.20;88.30
33476;DHT22;19814;48.224;11.422;2023-05-07T09:15:52;31.10;72.80
33476;DHT22;19814;48.224;11.422;2023-05-07T09:18:17;30.80;72.60
33476;DHT22;19814;48.224;11.422;2023-05-07T09:20:43;31.00;82.50
33476;DHT22;19814;48.224;11.422;2023-05-07T09:23:08;31.10;73.70
33476;DHT22;19814;48.224;11.422;2023-05-07T09:25:35;31.60;82.40
33476;DHT22;19814;48.224;11.422;2023-05-07T09:28:02;32.10;80.30
33476;DHT22;19814;48.224;11.422;2023-05-07T09:30:31;31.40;71.60
33476;DHT22;19814;48.224;11.422;2023-05-07T09:33:00;31.10;71.30
33476;DHT22;19814;48.224;11.422;2023-05-07T09:35:26;30.20;76.70
33476;DHT22;19814;48.224;11.422;2023-05-07T09:37:57;30.00;69.30
33476;DHT22;19814;48.224;11.422;2023-05-07T09:40:27;29.30;66.20
33476;DHT22;19814;48.224;11.422;2023-05-07T09:42:53;29.50;81.80
33476;DHT22;19814;48.224;11.422;2023-05-07T09:45:26;30.30;81.90
33476;DHT22;19814;48.224;11.422;2023-05-07T09:47:56;30.80;77.90
33476;DHT22;19814;48.224;11.422;2023-05-07T09:50:35;31.70;84.30
33476;DHT22;19814;48.224;11.422;2023-05-07T09:53:01;33.10;70.80
33476;DHT22;19814;48.224;11.422;2023-05-07T09:55:28;34.00;84.30
33476;DHT22;19814;48.224;11.422;2023-05-07T09:57:54;33.00;59.40
33476;DHT22;19814;48.224;11.422;2023-05-07T10:00:21;31.30;74.40
33476;DHT22;19814;48.224;11.422;2023-05-07T10:02:52;31.40;73.80
33476;DHT22;19814;48.224;11.422;2023-05-07T10:05:18;32.10;79.10
33476;DHT22;19814;48.224;11.422;2023-05-07T10:07:48;33.00;77.30
33476;DHT22;19814;48.224;11.422;2023-05-07T10:10:14;33.90;73.50
33476;DHT22;19814;48.224;11.422;2023-05-07T10:12:41;34.20;67.40
33476;DHT22;19814;48.224;11.422;2023-05-07T10:15:07;34.70;72.60
33476;DHT22;19814;48.224;11.422;2023-05-07T10:17:37;33.80;54.90
33476;DHT22;19814;48.224;11.422;2023-05-07T10:20:04;33.90;70.00
33476;DHT22;19814;48.224;11.422;2023-05-07T10:22:37;34.20;69.50
33476;DHT22;19814;48.224;11.422;2023-05-07T10:25:06;34.70;67.30
33476;DHT22;19814;48.224;11.422;2023-05-07T10:27:34;33.30;54.30
33476;DHT22;19814;48.224;11.422;2023-05-07T10:32:46;30.30;57.60
33476;DHT22;19814;48.224;11.422;2023-05-07T10:35:19;30.50;66.70
33476;DHT22;19814;48.224;11.422;2023-05-07T10:37:46;31.60;64.90
33476;DHT22;19814;48.224;11.422;2023-05-07T10:40:12;31.40;70.60
33476;DHT22;19814;48.224;11.422;2023-05-07T10:42:38;31.00;55.30
33476;DHT22;19814;48.224;11.422;2023-05-07T10:45:14;31.10;66.50
33476;DHT22;19814;48.224;11.422;2023-05-07T10:48:12;32.00;67.20
33476;DHT22;19814;48.224;11.422;2023-05-07T10:50:43;33.00;72.70
33476;DHT22;19814;48.224;11.422;2023-05-07T10:55:46;31.90;65.90
33476;DHT22;19814;48.224;11.422;2023-05-07T11:00:49;32.30;62.40
33476;DHT22;19814;48.224;11.422;2023-05-07T11:03:14;32.20;72.70
33476;DHT22;19814;48.224;11.422;2023-05-07T11:05:42;32.50;71.60
33476;DHT22;19814;48.224;11.422;2023-05-07T11:08:09;33.10;66.20
33476;DHT22;19814;48.224;11.422;2023-05-07T11:10:54;33.40;58.80
33476;DHT22;19814;48.224;11.422;2023-05-07T11:16:36;33.90;54.80
33476;DHT22;19814;48.224;11.422;2023-05-07T11:19:03;33.90;59.70
33476;DHT22;19814;48.224;11.422;2023-05-07T11:24:01;33.30;66.20
33476;DHT22;19814;48.224;11.422;2023-05-07T11:26:29;33.80;57.30
33476;DHT22;19814;48.224;11.422;2023-05-07T11:28:57;33.80;59.70
33476;DHT22;19814;48.224;11.422;2023-05-07T11:31:25;33.50;51.30
33476;DHT22;19814;48.224;11.422;2023-05-07T11:33:52;33.10;68.50
33476;DHT22;19814;48.224;11.422;2023-05-07T11:36:18;34.00;71.50
33476;DHT22;19814;48.224;11.422;2023-05-07T11:38:44;34.90;59.10
33476;DHT22;19814;48.224;11.422;2023-05-07T11:41:10;35.20;66.80
33476;DHT22;19814;48.224;11.422;2023-05-07T11:43:35;35.80;65.70
33476;DHT22;19814;48.224;11.422;2023-05-07T11:46:11;35.60;65.60
33476;DHT22;19814;48.224;11.422;2023-05-07T11:48:38;35.40;66.50
33476;DHT22;19814;48.224;11.422;2023-05-07T11:51:05;34.50;58.50
33476;DHT22;19814;48.224;11.422;2023-05-07T11:53:36;34.60;55.60
33476;DHT22;19814;48.224;11.422;2023-05-07T11:56:13;34.00;56.70
33476;DHT22;19814;48.224;11.422;2023-05-07T11:58:40;31.80;52.50
33476;DHT22;19814;48.224;11.422;2023-05-07T12:01:09;30.80;53.40
33476;DHT22;19814;48.224;11.422;2023-05-07T12:03:35;30.00;59.30
33476;DHT22;19814;48.224;11.422;2023-05-07T12:06:02;30.20;62.30
33476;DHT22;19814;48.224;11.422;2023-05-07T12:08:30;29.60;64.00
33476;DHT22;19814;48.224;11.422;2023-05-07T12:10:56;29.80;68.50
33476;DHT22;19814;48.224;11.422;2023-05-07T12:13:23;30.30;71.30
33476;DHT22;19814;48.224;11.422;2023-05-07T12:15:52;30.10;55.90
33476;DHT22;19814;48.224;11.422;2023-05-07T12:18:18;29.80;59.70
33476;DHT22;19814;48.224;11.422;2023-05-07T12:20:45;29.20;66.80
33476;DHT22;19814;48.224;11.422;2023-05-07T12:23:11;28.40;58.10
33476;DHT22;19814;48.224;11.422;2023-05-07T12:25:38;27.80;68.10
33476;DHT22;19814;48.224;11.422;2023-05-07T12:28:04;27.80;66.40
33476;DHT22;19814;48.224;11.422;2023-05-07T12:30:38;27.20;61.00
33476;DHT22;19814;48.224;11.422;2023-05-07T12:33:03;26.60;65.50
33476;DHT22;19814;48.224;11.422;2023-05-07T12:35:37;26.70;62.70
33476;DHT22;19814;48.224;11.422;2023-05-07T12:38:08;26.50;60.70
33476;DHT22;19814;48.224;11.422;2023-05-07T12:40:41;25.80;64.80
33476;DHT22;19814;48.224;11.422;2023-05-07T12:43:07;25.70;65.10
33476;DHT22;19814;48.224;11.422;2023-05-07T12:45:39;26.00;69.50
33476;DHT22;19814;48.224;11.422;2023-05-07T12:48:04;26.30;66.50
33476;DHT22;19814;48.224;11.422;2023-05-07T12:50:32;25.50;65.40
33476;DHT22;19814;48.224;11.422;2023-05-07T12:52:58;25.20;66.40
33476;DHT22;19814;48.224;11.422;2023-05-07T12:55:24;25.20;63.30
33476;DHT22;19814;48.224;11.422;2023-05-07T12:57:50;25.00;66.20
33476;DHT22;19814;48.224;11.422;2023-05-07T13:00:16;25.00;68.70
33476;DHT22;19814;48.224;11.422;2023-05-07T13:02:43;25.20;65.90
33476;DHT22;19814;48.224;11.422;2023-05-07T13:05:12;25.50;63.60
33476;DHT22;19814;48.224;11.422;2023-05-07T13:07:37;25.60;60.40
33476;DHT22;19814;48.224;11.422;2023-05-07T13:10:03;25.80;67.90
33476;DHT22;19814;48.224;11.422;2023-05-07T13:12:29;25.60;60.60
33476;DHT22;19814;48.224;11.422;2023-05-07T13:14:55;25.60;67.90
33476;DHT22;19814;48.224;11.422;2023-05-07T13:17:20;25.90;67.40
33476;DHT22;19814;48.224;11.422;2023-05-07T13:19:46;26.20;65.70
33476;DHT22;19814;48.224;11.422;2023-05-07T13:22:11;26.40;63.20
33476;DHT22;19814;48.224;11.422;2023-05-07T13:24:37;26.30;65.50
33476;DHT22;19814;48.224;11.422;2023-05-07T13:27:03;26.40;65.90
33476;DHT22;19814;48.224;11.422;2023-05-07T13:29:29;26.60;66.70
33476;DHT22;19814;48.224;11.422;2023-05-07T13:31:59;26.60;62.40
33476;DHT22;19814;48.224;11.422;2023-05-07T13:34:37;26.20;62.70
33476;DHT22;19814;48.224;11.422;2023-05-07T13:37:24;26.00;59.90
33476;DHT22;19814;48.224;11.422;2023-05-07T13:39:51;25.80;64.00
33476;DHT22;19814;48.224;11.422;2023-05-07T13:42:16;25.80;61.10
33476;DHT22;19814;48.224;11.422;2023-05-07T13:44:54;25.20;63.10
33476;DHT22;19814;48.224;11.422;2023-05-07T13:47:19;24.60;68.10
33476;DHT22;19814;48.224;11.422;2023-05-07T13:49:45;24.40;66.60
33476;DHT22;19814;48.224;11.422;2023-05-07T13:52:10;24.10;70.50
33476;DHT22;19814;48.224;11.422;2023-05-07T13:54:36;24.20;69.10
33476;DHT22;19814;48.224;11.422;2023-05-07T13:57:02;24.30;68.30
33476;DHT22;19814;48.224;11.422;2023-05-07T13:59:27;24.40;65.00
33476;DHT22;19814;48.224;11.422;2023-05-07T14:01:53;24.30;67.20
33476;DHT22;19814;48.224;11.422;2023-05-07T14:04:20;24.20;67.70
33476;DHT22;19814;48.224;11.422;2023-05-07T14:06:45;24.20;67.80
33476;DHT22;19814;48.224;11.422;2023-05-07T14:09:11;24.10;66.40
33476;DHT22;19814;48.224;11.422;2023-05-07T14:11:38;24.10;71.60
33476;DHT22;19814;48.224;11.422;2023-05-07T14:14:05;24.20;71.00
33476;DHT22;19814;48.224;11.422;2023-05-07T14:16:30;24.40;70.80
33476;DHT22;19814;48.224;11.422;2023-05-07T14:18:56;24.60;69.80
33476;DHT22;19814;48.224;11.422;2023-05-07T14:21:21;24.60;68.90
33476;DHT22;19814;48.224;11.422;2023-05-07T14:23:47;24.70;70.40
33476;DHT22;19814;48.224;11.422;2023-05-07T14:26:13;24.70;64.80
33476;DHT22;19814;48.224;11.422;2023-05-07T14:28:39;24.30;69.00
33476;DHT22;19814;48.224;11.422;2023-05-07T14:31:05;24.10;69.90
33476;DHT22;19814;48.224;11.422;2023-05-07T14:33:31;24.10;67.80
33476;DHT22;19814;48.224;11.422;2023-05-07T14:35:57;24.00;70.70
33476;DHT22;19814;48.224;11.422;2023-05-07T14:38:22;24.10;69.10
33476;DHT22;19814;48.224;11.422;2023-05-07T14:40:48;24.00;68.20
33476;DHT22;19814;48.224;11.422;2023-05-07T14:43:14;24.00;68.30
33476;DHT22;19814;48.224;11.422;2023-05-07T14:45:39;23.60;69.40
33476;DHT22;19814;48.224;11.422;2023-05-07T14:48:05;23.50;69.00
33476;DHT22;19814;48.224;11.422;2023-05-07T14:50:31;23.40;66.50
33476;DHT22;19814;48.224;11.422;2023-05-07T14:52:56;23.20;65.20
33476;DHT22;19814;48.224;11.422;2023-05-07T14:55:22;23.10;67.90
33476;DHT22;19814;48.224;11.422;2023-05-07T14:57:47;23.10;69.80
33476;DHT22;19814;48.224;11.422;2023-05-07T15:00:13;23.20;71.30
33476;DHT22;19814;48.224;11.422;2023-05-07T15:02:39;23.30;72.50
33476;DHT22;19814;48.224;11.422;2023-05-07T15:05:05;23.20;67.80
33476;DHT22;19814;48.224;11.422;2023-05-07T15:07:31;23.20;67.10
33476;DHT22;19814;48.224;11.422;2023-05-07T15:09:59;22.90;69.60
33476;DHT22;19814;48.224;11.422;2023-05-07T15:12:25;22.80;70.40
33476;DHT22;19814;48.224;11.422;2023-05-07T15:14:51;22.70;69.60
33476;DHT22;19814;48.224;11.422;2023-05-07T15:17:16;22.70;69.50
33476;DHT22;19814;48.224;11.422;2023-05-07T15:19:42;22.60;69.80
33476;DHT22;19814;48.224;11.422;2023-05-07T15:22:07;22.50;71.50
33476;DHT22;19814;48.224;11.422;2023-05-07T15:24:33;22.40;69.00